Time;durP1;ratioP1;P1;durP2;ratioP2;P2;SDS_P1;SDS_P2;PMS_P1;PMS_P2;Temp;Humidity;BMP_temperature;BMP_pressure;BME280_temperature;BME280_humidity;BME280_pressure;Samples;Min_cycle;Max_cycle;Signal;HPM_P1;HPM_P2
2021/04/27 00:00:16;;;;;;;6.55;4.30;;;8.00;57.60;;;;;;5093792;28;20206;-40
2021/04/27 00:02:44;;;;;;;4.30;3.90;;;8.00;57.70;;;;;;5093848;28;20210;-40
2021/04/27 00:05:14;;;;;;;3.78;3.33;;;8.00;57.70;;;;;;5093582;28;20238;-41
2021/04/27 00:07:41;;;;;;;4.18;3.80;;;7.90;57.90;;;;;;5093800;28;20272;-40
2021/04/27 00:10:11;;;;;;;4.72;4.05;;;7.90;58.00;;;;;;5093561;28;20593;-41
2021/04/27 00:12:39;;;;;;;5.05;4.07;;;7.90;58.00;;;;;;5093588;28;20264;-40
2021/04/27 00:15:08;;;;;;;5.82;3.85;;;7.80;58.20;;;;;;5093683;28;20256;-40
2021/04/27 00:17:36;;;;;;;4.15;3.58;;;7.80;58.30;;;;;;5093553;28;20283;-41
2021/04/27 00:20:04;;;;;;;5.20;4.40;;;7.70;58.30;;;;;;5093290;28;20202;-41
2021/04/27 00:22:32;;;;;;;4.03;3.63;;;7.70;58.50;;;;;;5093424;28;20225;-41
2021/04/27 00:24:59;;;;;;;6.97;4.13;;;7.70;58.60;;;;;;5093451;28;20580;-42
2021/04/27 00:27:26;;;;;;;5.63;4.25;;;7.60;58.80;;;;;;5093307;28;20213;-41
2021/04/27 00:29:53;;;;;;;7.38;3.88;;;7.50;58.90;;;;;;5093401;28;20284;-42
2021/04/27 00:32:20;;;;;;;6.65;5.15;;;7.50;59.20;;;;;;5093114;28;20207;-42
2021/04/27 00:34:48;;;;;;;6.32;4.15;;;7.40;59.30;;;;;;5093227;28;20673;-42
2021/04/27 00:37:15;;;;;;;4.22;3.83;;;7.40;60.20;;;;;;5092980;28;20297;-42
2021/04/27 00:39:42;;;;;;;4.18;3.78;;;7.30;59.70;;;;;;5093030;28;20660;-42
2021/04/27 00:42:09;;;;;;;4.63;4.05;;;7.30;60.00;;;;;;5092991;28;20668;-42
2021/04/27 00:44:37;;;;;;;4.07;3.72;;;7.20;60.10;;;;;;5093027;28;20257;-42
2021/04/27 00:47:04;;;;;;;5.13;4.70;;;7.10;60.30;;;;;;5093011;28;20637;-43
2021/04/27 00:49:32;;;;;;;4.55;3.85;;;7.20;63.80;;;;;;5092682;28;20310;-41
2021/04/27 00:52:00;;;;;;;4.30;3.88;;;7.10;60.80;;;;;;5092853;28;20616;-41
2021/04/27 00:54:28;;;;;;;4.43;3.83;;;7.00;60.90;;;;;;5092598;28;20252;-42
2021/04/27 00:56:55;;;;;;;5.13;4.55;;;7.00;60.90;;;;;;5092837;28;20202;-41
2021/04/27 00:59:22;;;;;;;6.47;4.28;;;7.00;61.10;;;;;;5092854;28;20252;-41
2021/04/27 01:01:49;;;;;;;4.82;3.95;;;6.90;61.30;;;;;;5092755;28;20293;-41
2021/04/27 01:04:16;;;;;;;7.25;4.13;;;6.90;61.40;;;;;;5092642;28;20256;-41
2021/04/27 01:06:43;;;;;;;5.32;4.00;;;6.90;61.70;;;;;;5092727;28;20326;-41
2021/04/27 01:09:19;;;;;;;6.75;4.20;;;6.80;61.80;;;;;;5092740;28;20317;-41
2021/04/27 01:11:54;;;;;;;4.78;3.88;;;6.80;61.90;;;;;;5092698;28;20211;-41
2021/04/27 01:14:29;;;;;;;4.50;4.10;;;6.80;61.90;;;;;;5092481;28;20292;-40
2021/04/27 01:16:58;;;;;;;5.20;4.47;;;6.80;61.80;;;;;;5092359;28;20225;-41
2021/04/27 01:19:29;;;;;;;5.75;4.45;;;6.80;61.80;;;;;;5092460;28;20717;-41
2021/04/27 01:21:57;;;;;;;4.20;3.80;;;6.80;61.80;;;;;;5092318;28;20290;-42
2021/04/27 01:24:32;;;;;;;7.22;5.03;;;6.80;61.70;;;;;;5092508;28;20236;-42
2021/04/27 01:27:02;;;;;;;6.05;4.38;;;6.90;61.70;;;;;;5092351;28;20238;-41
2021/04/27 01:29:31;;;;;;;4.53;3.67;;;6.90;61.60;;;;;;5092105;28;20230;-41
2021/04/27 01:32:00;;;;;;;5.85;4.50;;;6.90;61.50;;;;;;5092377;28;20293;-42
2021/04/27 01:34:29;;;;;;;8.13;5.05;;;6.90;61.50;;;;;;5092312;28;20285;-42
2021/04/27 01:36:56;;;;;;;7.18;4.10;;;6.90;61.60;;;;;;5092108;28;20213;-41
2021/04/27 01:39:25;;;;;;;7.13;4.95;;;6.90;61.70;;;;;;5092283;28;20259;-40
2021/04/27 01:41:53;;;;;;;5.75;4.63;;;6.90;61.70;;;;;;5092058;28;20210;-40
2021/04/27 01:44:22;;;;;;;5.38;4.78;;;6.90;61.60;;;;;;5092314;28;20293;-40
2021/04/27 01:46:49;;;;;;;7.70;4.50;;;6.90;61.60;;;;;;5092180;28;20424;-42
2021/04/27 01:49:17;;;;;;;5.22;4.40;;;6.80;61.70;;;;;;5095681;28;20222;-41
2021/04/27 01:51:44;;;;;;;6.72;4.80;;;6.90;61.80;;;;;;5096267;28;20643;-41
2021/04/27 01:54:13;;;;;;;7.43;4.40;;;6.80;61.80;;;;;;5096094;28;20292;-41
2021/04/27 01:56:40;;;;;;;6.32;5.20;;;6.80;62.00;;;;;;5096490;28;20309;-41
2021/04/27 01:59:07;;;;;;;5.45;4.80;;;6.80;62.00;;;;;;5096152;28;20206;-41
2021/04/27 02:01:35;;;;;;;7.65;4.47;;;6.70;62.00;;;;;;5096174;28;20237;-41
2021/04/27 02:04:03;;;;;;;5.25;4.80;;;6.70;62.30;;;;;;5096011;28;20734;-41
2021/04/27 02:06:30;;;;;;;5.38;4.43;;;6.70;62.40;;;;;;5096042;28;20269;-41
2021/04/27 02:09:02;;;;;;;5.38;4.85;;;6.60;62.60;;;;;;5095730;28;20512;-40
2021/04/27 02:11:33;;;;;;;5.72;4.55;;;6.60;62.90;;;;;;5095951;28;20273;-41
2021/04/27 02:14:01;;;;;;;4.70;4.28;;;6.50;63.00;;;;;;5095832;28;20693;-42
2021/04/27 02:16:32;;;;;;;5.78;4.88;;;6.50;63.10;;;;;;5095896;28;20206;-41
2021/04/27 02:19:03;;;;;;;10.00;5.00;;;6.50;63.30;;;;;;5096294;28;20290;-42
2021/04/27 02:21:34;;;;;;;6.63;4.07;;;6.50;63.30;;;;;;5095762;28;20210;-42
2021/04/27 02:24:01;;;;;;;6.88;4.07;;;6.40;63.40;;;;;;5095981;28;20336;-41
2021/04/27 02:26:30;;;;;;;6.80;4.47;;;6.40;63.60;;;;;;5095727;28;20429;-41
2021/04/27 02:28:57;;;;;;;6.18;4.88;;;6.40;63.70;;;;;;5095882;28;20783;-41
2021/04/27 02:31:24;;;;;;;5.80;4.95;;;6.30;63.90;;;;;;5095602;28;20293;-42
2021/04/27 02:33:51;;;;;;;4.65;4.25;;;6.30;64.10;;;;;;5095737;28;20203;-41
2021/04/27 02:36:19;;;;;;;4.30;3.90;;;6.30;64.30;;;;;;5095961;28;20305;-41
2021/04/27 02:38:46;;;;;;;8.18;4.75;;;6.20;64.30;;;;;;5095380;28;20710;-41
2021/04/27 02:41:15;;;;;;;4.68;4.22;;;6.20;64.50;;;;;;5095516;28;20202;-41
2021/04/27 02:43:42;;;;;;;5.63;4.70;;;6.20;64.50;;;;;;5095414;28;20234;-40
2021/04/27 02:46:09;;;;;;;5.45;4.60;;;6.20;64.50;;;;;;5095280;28;20206;-43
2021/04/27 02:48:36;;;;;;;6.43;4.97;;;6.10;64.70;;;;;;5095100;28;20202;-41
2021/04/27 02:51:04;;;;;;;4.57;4.07;;;6.10;65.10;;;;;;5095114;28;20321;-43
2021/04/27 02:53:32;;;;;;;5.50;4.28;;;6.10;65.10;;;;;;5095179;28;20320;-41
2021/04/27 02:55:59;;;;;;;6.35;5.75;;;6.00;65.20;;;;;;5095324;28;20249;-41
2021/04/27 02:58:27;;;;;;;6.28;4.45;;;6.00;65.50;;;;;;5094925;28;20284;-41
2021/04/27 03:00:54;;;;;;;8.52;5.10;;;6.00;65.60;;;;;;5094737;28;20729;-41
2021/04/27 03:03:21;;;;;;;5.10;4.22;;;6.00;65.60;;;;;;5094992;28;20298;-41
2021/04/27 03:05:48;;;;;;;9.38;4.40;;;6.00;65.60;;;;;;5094816;28;20665;-41
2021/04/27 03:08:15;;;;;;;7.70;5.28;;;6.00;65.80;;;;;;5095029;28;20207;-40
2021/04/27 03:10:43;;;;;;;6.40;4.65;;;6.00;66.00;;;;;;5094805;28;20309;-39
2021/04/27 03:13:09;;;;;;;7.47;4.95;;;5.90;66.10;;;;;;5094781;28;20602;-41
2021/04/27 03:15:36;;;;;;;5.05;4.55;;;5.90;66.20;;;;;;5094704;28;20212;-42
2021/04/27 03:18:04;;;;;;;5.72;5.05;;;;;;;;;;5094628;28;20206;-41
2021/04/27 03:20:31;;;;;;;5.90;4.93;;;5.60;92.10;;;;;;5094856;28;20203;-41
2021/04/27 03:22:58;;;;;;;5.43;4.95;;;5.80;66.70;;;;;;5094730;28;20633;-42
2021/04/27 03:25:25;;;;;;;6.38;4.53;;;5.70;66.90;;;;;;5094501;28;20734;-41
2021/04/27 03:27:55;;;;;;;5.63;4.50;;;5.70;67.10;;;;;;5094744;28;20243;-40
2021/04/27 03:30:22;;;;;;;6.22;4.65;;;5.60;67.20;;;;;;5094192;28;20230;-40
2021/04/27 03:32:49;;;;;;;4.78;4.30;;;5.60;67.50;;;;;;5094610;28;20211;-40
2021/04/27 03:35:17;;;;;;;5.43;4.88;;;5.60;67.70;;;;;;5094564;28;20245;-40
2021/04/27 03:37:44;;;;;;;6.55;5.43;;;5.60;67.90;;;;;;5094244;28;20562;-40
2021/04/27 03:40:12;;;;;;;6.20;5.45;;;5.50;67.80;;;;;;5094492;28;20662;-40
2021/04/27 03:42:39;;;;;;;6.45;5.53;;;5.50;67.90;;;;;;5094140;28;20289;-41
2021/04/27 03:45:11;;;;;;;7.85;4.88;;;5.50;68.00;;;;;;5094295;28;20234;-40
2021/04/27 03:47:38;;;;;;;5.97;5.10;;;5.60;68.10;;;;;;5094316;28;20210;-40
2021/04/27 03:50:07;;;;;;;7.93;5.45;;;5.50;68.10;;;;;;5094136;28;20227;-39
2021/04/27 03:52:34;;;;;;;7.80;4.88;;;5.50;68.20;;;;;;5094111;28;20297;-40
2021/04/27 03:55:01;;;;;;;5.15;4.53;;;5.40;68.20;;;;;;5093822;28;20732;-40
2021/04/27 03:57:28;;;;;;;7.03;5.60;;;5.40;68.50;;;;;;5093701;28;20211;-40
2021/04/27 03:59:55;;;;;;;9.10;5.05;;;5.30;68.70;;;;;;5094028;28;20225;-41
2021/04/27 04:02:23;;;;;;;6.63;5.57;;;5.30;69.00;;;;;;5093606;28;20209;-40
2021/04/27 04:04:51;;;;;;;9.07;5.93;;;5.30;69.20;;;;;;5093884;28;20234;-40
2021/04/27 04:07:18;;;;;;;8.55;6.20;;;5.30;69.30;;;;;;5093692;28;20297;-40
2021/04/27 04:09:44;;;;;;;5.28;4.78;;;5.30;69.30;;;;;;5093596;28;20226;-40
2021/04/27 04:12:12;;;;;;;7.53;5.43;;;5.30;69.50;;;;;;5093308;28;20233;-40
2021/04/27 04:14:39;;;;;;;9.00;6.60;;;5.30;69.40;;;;;;5093622;28;20298;-40
2021/04/27 04:17:06;;;;;;;10.45;6.88;;;5.30;69.30;;;;;;5094021;28;20240;-40
2021/04/27 04:19:34;;;;;;;6.97;5.60;;;5.40;69.40;;;;;;5093453;28;20206;-41
2021/04/27 04:22:03;;;;;;;9.45;6.30;;;5.30;69.50;;;;;;5093334;28;20239;-41
2021/04/27 04:24:30;;;;;;;14.32;6.72;;;5.30;69.50;;;;;;5093089;28;20257;-40
2021/04/27 04:26:57;;;;;;;9.65;5.93;;;5.30;69.70;;;;;;5093385;28;20258;-40
2021/04/27 04:29:25;;;;;;;6.90;6.10;;;5.30;69.80;;;;;;5093190;28;20237;-40
2021/04/27 04:31:52;;;;;;;10.38;7.13;;;5.30;69.70;;;;;;5093190;28;20234;-40
2021/04/27 04:34:19;;;;;;;6.30;5.70;;;5.40;69.90;;;;;;5093321;28;20203;-40
2021/04/27 04:36:48;;;;;;;11.73;8.27;;;5.40;69.80;;;;;;5093157;28;20257;-40
2021/04/27 04:39:15;;;;;;;6.72;6.03;;;5.40;69.80;;;;;;5093435;28;20206;-40
2021/04/27 04:41:42;;;;;;;7.78;5.82;;;5.40;69.80;;;;;;5093294;28;20206;-40
2021/04/27 04:44:10;;;;;;;9.75;6.18;;;5.40;69.90;;;;;;5093244;28;20298;-40
2021/04/27 04:46:38;;;;;;;10.45;6.05;;;5.40;70.00;;;;;;5093080;28;20218;-40
2021/04/27 04:49:05;;;;;;;6.97;5.35;;;5.40;70.00;;;;;;5093004;28;20256;-41
2021/04/27 04:51:32;;;;;;;7.13;5.95;;;5.50;69.90;;;;;;5092929;28;20577;-40
2021/04/27 04:54:00;;;;;;;8.75;6.60;;;5.60;69.80;;;;;;5092992;28;20237;-42
2021/04/27 04:56:27;;;;;;;7.63;6.63;;;5.60;69.80;;;;;;5093062;28;20332;-40
2021/04/27 04:58:59;;;;;;;6.80;5.57;;;5.70;69.60;;;;;;5092955;28;20206;-40
2021/04/27 05:01:26;;;;;;;6.63;5.90;;;5.90;69.30;;;;;;5092543;28;20260;-41
2021/04/27 05:03:54;;;;;;;15.30;6.35;;;5.90;69.10;;;;;;5092419;28;20211;-41
2021/04/27 05:06:21;;;;;;;5.80;5.20;;;6.00;69.00;;;;;;5092216;28;20325;-41
2021/04/27 05:08:50;;;;;;;7.68;5.65;;;6.10;68.70;;;;;;5092149;28;20236;-41
2021/04/27 05:11:18;;;;;;;6.22;5.55;;;6.20;68.60;;;;;;5092720;28;20608;-42
2021/04/27 05:13:46;;;;;;;7.05;5.85;;;6.20;68.40;;;;;;5092636;28;20297;-42
2021/04/27 05:16:13;;;;;;;7.35;6.10;;;6.30;68.50;;;;;;5092580;28;20203;-41
2021/04/27 05:18:41;;;;;;;5.95;5.35;;;6.30;68.30;;;;;;5092162;28;20206;-43
2021/04/27 05:21:08;;;;;;;6.10;5.50;;;6.30;68.20;;;;;;5092554;28;20242;-43
2021/04/27 05:23:35;;;;;;;6.28;5.63;;;6.40;68.20;;;;;;5091724;28;20203;-42
2021/04/27 05:26:03;;;;;;;8.25;5.53;;;6.40;68.20;;;;;;5092272;28;20210;-41
2021/04/27 05:28:31;;;;;;;8.52;5.90;;;6.50;68.70;;;;;;5092344;28;20250;-41
2021/04/27 05:30:58;;;;;;;8.35;5.75;;;6.60;67.80;;;;;;5092233;28;20712;-42
2021/04/27 05:33:25;;;;;;;7.53;5.43;;;6.70;67.70;;;;;;5092496;28;20253;-42
2021/04/27 05:35:52;;;;;;;6.95;5.82;;;6.80;67.50;;;;;;5092501;28;20654;-42
2021/04/27 05:38:19;;;;;;;9.35;6.43;;;6.90;67.20;;;;;;5092036;28;20683;-41
2021/04/27 05:40:47;;;;;;;7.75;5.82;;;7.00;67.00;;;;;;5092320;28;20206;-41
2021/04/27 05:43:14;;;;;;;7.10;5.50;;;7.00;66.90;;;;;;5092155;28;20234;-41
2021/04/27 05:45:42;;;;;;;8.65;5.90;;;7.20;71.70;;;;;;5092116;28;20207;-41
2021/04/27 05:48:09;;;;;;;8.63;6.43;;;7.20;66.50;;;;;;5092098;28;20752;-41
2021/04/27 05:50:36;;;;;;;9.07;6.00;;;7.40;66.30;;;;;;5092010;28;20230;-42
2021/04/27 05:53:03;;;;;;;8.25;6.47;;;7.50;66.00;;;;;;5092353;28;20564;-42
2021/04/27 05:55:30;;;;;;;6.70;5.75;;;7.60;65.80;;;;;;5092150;28;20295;-41
2021/04/27 05:57:58;;;;;;;7.85;6.60;;;7.70;65.70;;;;;;5092059;28;20263;-41
2021/04/27 06:00:25;;;;;;;8.55;6.90;;;7.80;65.30;;;;;;5092445;28;20256;-41
2021/04/27 06:02:52;;;;;;;9.10;6.50;;;7.90;65.00;;;;;;5091834;28;20720;-41
2021/04/27 06:05:20;;;;;;;7.68;6.60;;;8.00;64.80;;;;;;5091747;28;20292;-41
2021/04/27 06:07:46;;;;;;;7.97;6.18;;;8.10;64.60;;;;;;5091952;28;20230;-41
2021/04/27 06:10:13;;;;;;;7.55;6.15;;;8.10;64.30;;;;;;5091616;28;20731;-40
2021/04/27 06:12:41;;;;;;;9.57;8.18;;;8.20;64.20;;;;;;5091497;28;20207;-43
2021/04/27 06:15:09;;;;;;;7.05;6.35;;;8.20;64.00;;;;;;5091786;28;20283;-43
2021/04/27 06:17:37;;;;;;;7.82;7.03;;;8.30;64.00;;;;;;5091656;28;20744;-42
2021/04/27 06:20:08;;;;;;;7.65;6.88;;;8.30;63.80;;;;;;5091645;28;20569;-42
2021/04/27 06:22:36;;;;;;;7.05;5.90;;;8.30;63.60;;;;;;5091487;28;20616;-44
2021/04/27 06:25:03;;;;;;;8.85;6.05;;;8.40;63.50;;;;;;5091381;28;20289;-44
2021/04/27 06:27:30;;;;;;;9.77;6.80;;;8.50;63.40;;;;;;5091460;28;20294;-41
2021/04/27 06:29:59;;;;;;;7.78;6.75;;;8.60;63.30;;;;;;5091786;28;20390;-41
2021/04/27 06:32:26;;;;;;;10.93;6.88;;;8.60;63.20;;;;;;5091789;28;20291;-41
2021/04/27 06:34:53;;;;;;;8.65;6.18;;;8.70;63.00;;;;;;5094176;28;20374;-41
2021/04/27 06:37:21;;;;;;;8.30;5.80;;;8.70;62.90;;;;;;5095065;28;20222;-44
2021/04/27 06:39:49;;;;;;;7.25;5.82;;;8.70;63.00;;;;;;5095130;28;20209;-41
2021/04/27 06:42:16;;;;;;;7.05;6.13;;;8.80;63.00;;;;;;5095313;28;20602;-41
2021/04/27 06:44:43;;;;;;;7.55;6.80;;;8.90;63.00;;;;;;5095238;28;20297;-41
2021/04/27 06:47:11;;;;;;;9.57;7.57;;;8.90;62.90;;;;;;5094930;28;20246;-43
2021/04/27 06:49:38;;;;;;;9.80;6.38;;;8.90;62.90;;;;;;5094887;28;20237;-41
2021/04/27 06:52:06;;;;;;;10.57;7.25;;;8.90;63.10;;;;;;5094639;28;20238;-42
2021/04/27 06:54:34;;;;;;;10.20;7.40;;;9.00;63.10;;;;;;5094940;28;20298;-41
2021/04/27 06:57:02;;;;;;;11.00;7.28;;;9.10;63.20;;;;;;5094856;28;20241;-41
2021/04/27 06:59:38;;;;;;;7.10;6.28;;;9.30;62.90;;;;;;5094906;28;20203;-41
2021/04/27 07:02:06;;;;;;;11.77;7.43;;;9.30;63.00;;;;;;5094864;28;20241;-41
2021/04/27 07:04:39;;;;;;;10.13;8.40;;;9.30;63.20;;;;;;5094508;28;20211;-43
2021/04/27 07:07:07;;;;;;;12.68;7.32;;;9.40;63.10;;;;;;5095015;28;20267;-46
2021/04/27 07:09:35;;;;;;;12.27;10.23;;;9.40;63.10;;;;;;5094374;28;20283;-40
2021/04/27 07:12:03;;;;;;;16.98;15.25;;;9.50;63.10;;;;;;5094462;28;20680;-40
2021/04/27 07:14:30;;;;;;;9.05;7.63;;;9.60;63.20;;;;;;5094493;28;20241;-41
2021/04/27 07:16:57;;;;;;;8.82;7.25;;;9.70;63.20;;;;;;5094567;28;20252;-42
2021/04/27 07:19:25;;;;;;;7.88;7.07;;;9.80;63.10;;;;;;5094187;28;20209;-42
2021/04/27 07:21:53;;;;;;;9.73;7.00;;;10.00;62.90;;;;;;5094295;28;20206;-40
2021/04/27 07:24:21;;;;;;;7.55;6.78;;;10.20;62.60;;;;;;5094304;28;20268;-39
2021/04/27 07:26:49;;;;;;;8.23;6.45;;;10.30;62.40;;;;;;5094362;28;20209;-40
2021/04/27 07:29:17;;;;;;;10.15;7.97;;;10.50;62.30;;;;;;5093960;28;20547;-41
2021/04/27 07:31:45;;;;;;;8.05;7.25;;;10.60;62.00;;;;;;5094072;28;20217;-41
2021/04/27 07:34:13;;;;;;;8.88;7.97;;;10.60;62.00;;;;;;5094118;28;20666;-41
2021/04/27 07:36:40;;;;;;;8.23;6.80;;;10.60;62.20;;;;;;5093971;28;20210;-41
2021/04/27 07:39:09;;;;;;;10.52;7.63;;;10.60;62.40;;;;;;5094107;28;20643;-42
2021/04/27 07:41:36;;;;;;;10.20;8.90;;;10.60;62.40;;;;;;5094117;28;20218;-41
2021/04/27 07:44:05;;;;;;;11.98;10.77;;;10.60;62.40;;;;;;5093849;28;20256;-40
2021/04/27 07:46:33;;;;;;;13.05;10.43;;;10.70;62.60;;;;;;5092999;28;20246;-40
2021/04/27 07:49:00;;;;;;;14.57;10.90;;;10.70;62.40;;;;;;5094001;28;20219;-40
2021/04/27 07:51:27;;;;;;;14.60;8.95;;;10.80;62.40;;;;;;5094061;28;20222;-40
2021/04/27 07:53:55;;;;;;;14.48;12.95;;;11.00;62.30;;;;;;5093773;28;20244;-40
2021/04/27 07:56:22;;;;;;;9.68;8.73;;;11.00;62.00;;;;;;5093736;28;20221;-41
2021/04/27 07:58:49;;;;;;;10.80;8.02;;;11.20;61.90;;;;;;5093587;28;20629;-40
2021/04/27 08:01:17;;;;;;;10.98;8.65;;;11.30;61.70;;;;;;5093708;28;20354;-41
2021/04/27 08:03:44;;;;;;;8.45;7.57;;;11.50;61.60;;;;;;5093771;28;20276;-41
2021/04/27 08:06:11;;;;;;;9.75;7.50;;;11.60;61.50;;;;;;5093479;28;20318;-40
2021/04/27 08:08:38;;;;;;;10.95;9.95;;;11.70;61.20;;;;;;5093416;28;20242;-42
2021/04/27 08:11:05;;;;;;;10.85;7.20;;;11.70;61.20;;;;;;5093319;28;20321;-44
2021/04/27 08:13:32;;;;;;;9.50;7.65;;;11.80;61.10;;;;;;5093191;28;20651;-43
2021/04/27 08:15:59;;;;;;;15.00;7.43;;;11.90;60.90;;;;;;5093543;28;20272;-43
2021/04/27 08:18:27;;;;;;;8.77;7.28;;;12.00;60.80;;;;;;5093026;28;20213;-44
2021/04/27 08:20:55;;;;;;;10.68;7.82;;;12.10;60.80;;;;;;5093251;28;20206;-42
2021/04/27 08:23:23;;;;;;;9.02;7.88;;;12.20;60.70;;;;;;5093098;28;20317;-46
2021/04/27 08:25:58;;;;;;;10.35;8.38;;;12.30;60.70;;;;;;5092707;28;20236;-44
2021/04/27 08:28:25;;;;;;;9.43;8.32;;;12.40;60.40;;;;;;5092990;28;20708;-43
2021/04/27 08:30:53;;;;;;;13.25;8.45;;;12.40;60.10;;;;;;5093066;28;20226;-48
2021/04/27 08:33:20;;;;;;;13.18;7.22;;;12.40;60.00;;;;;;5093077;28;20335;-43
2021/04/27 08:35:48;;;;;;;14.20;9.05;;;12.40;60.00;;;;;;5092866;28;20211;-43
2021/04/27 08:38:15;;;;;;;8.65;7.90;;;12.40;60.00;;;;;;5092789;28;20211;-43
2021/04/27 08:40:42;;;;;;;10.95;7.78;;;12.50;60.00;;;;;;5092464;28;20302;-43
2021/04/27 08:43:09;;;;;;;10.40;8.38;;;12.50;60.00;;;;;;5092860;28;20298;-44
2021/04/27 08:45:40;;;;;;;9.40;7.90;;;12.70;59.70;;;;;;5092717;28;20238;-43
2021/04/27 08:48:08;;;;;;;11.25;7.32;;;12.80;59.50;;;;;;5092689;28;20313;-44
2021/04/27 08:50:36;;;;;;;9.68;7.85;;;12.90;59.30;;;;;;5092417;28;20240;-43
2021/04/27 08:53:04;;;;;;;15.05;10.75;;;13.10;59.10;;;;;;5092462;28;20234;-45
2021/04/27 08:55:32;;;;;;;10.50;8.55;;;13.30;58.90;;;;;;5092479;28;20637;-45
2021/04/27 08:57:59;;;;;;;8.75;7.82;;;13.40;58.60;;;;;;5092394;28;20635;-43
2021/04/27 09:00:26;;;;;;;10.07;7.22;;;13.40;58.60;;;;;;5092195;28;20289;-43
2021/04/27 09:02:55;;;;;;;9.73;8.38;;;13.50;58.50;;;;;;5092131;28;20641;-43
2021/04/27 09:05:25;;;;;;;9.77;8.20;;;13.60;58.10;;;;;;5092165;28;20239;-44
2021/04/27 09:07:52;;;;;;;15.98;10.95;;;13.60;58.00;;;;;;5092107;28;20576;-44
2021/04/27 09:10:23;;;;;;;10.88;7.20;;;13.70;57.90;;;;;;5092481;28;20307;-43
2021/04/27 09:12:52;;;;;;;10.75;9.25;;;13.80;57.70;;;;;;5092410;28;20238;-44
2021/04/27 09:15:25;;;;;;;10.57;7.72;;;13.90;57.60;;;;;;5092185;28;20229;-43
2021/04/27 09:17:52;;;;;;;10.23;7.90;;;14.00;57.50;;;;;;5092077;28;20649;-44
2021/04/27 09:20:19;;;;;;;9.00;7.68;;;14.00;57.20;;;;;;5091964;28;20211;-44
2021/04/27 09:22:46;;;;;;;15.57;7.93;;;13.90;56.70;;;;;;5092191;28;20203;-45
2021/04/27 09:25:14;;;;;;;9.45;8.52;;;13.80;56.80;;;;;;5092042;28;20242;-46
2021/04/27 09:27:46;;;;;;;10.48;7.40;;;13.80;57.00;;;;;;5092108;28;20603;-44
2021/04/27 09:30:17;;;;;;;8.93;8.02;;;13.90;56.70;;;;;;5091887;28;20222;-46
2021/04/27 09:32:54;;;;;;;9.48;8.57;;;14.00;56.70;;;;;;5091948;28;20629;-44
2021/04/27 09:35:33;;;;;;;10.60;8.38;;;14.10;56.70;;;;;;5092232;28;20237;-44
2021/04/27 09:38:12;;;;;;;10.50;8.30;;;14.10;56.50;;;;;;5091748;28;20661;-45
2021/04/27 09:40:52;;;;;;;14.68;9.90;;;14.20;55.40;;;;;;5091928;28;20199;-44
2021/04/27 09:43:21;;;;;;;10.23;8.15;;;14.30;55.20;;;;;;5091906;28;20287;-44
2021/04/27 09:45:50;;;;;;;12.07;8.13;;;14.40;54.90;;;;;;5092181;28;20293;-47
2021/04/27 09:48:30;;;;;;;10.70;7.80;;;14.50;54.50;;;;;;5091743;28;20293;-44
2021/04/27 09:51:26;;;;;;;15.25;8.63;;;14.50;53.60;;;;;;5091535;28;20546;-47
2021/04/27 09:54:13;;;;;;;10.55;7.82;;;14.50;53.10;;;;;;5091847;28;20206;-44
2021/04/27 09:56:43;;;;;;;8.13;7.32;;;14.60;53.70;;;;;;5091766;28;20210;-44
2021/04/27 09:59:14;;;;;;;10.07;7.60;;;14.70;53.10;;;;;;5091306;28;20555;-49
2021/04/27 10:01:46;;;;;;;13.68;8.23;;;14.80;53.10;;;;;;5091586;28;20230;-45
2021/04/27 10:04:17;;;;;;;11.00;7.20;;;14.90;52.60;;;;;;5091664;28;20327;-43
2021/04/27 10:06:44;;;;;;;7.80;7.10;;;15.10;52.40;;;;;;5091352;28;20329;-46
2021/04/27 10:09:12;;;;;;;11.95;6.93;;;15.20;51.80;;;;;;5093228;28;20206;-45
2021/04/27 10:11:39;;;;;;;7.63;6.63;;;15.40;51.70;;;;;;5095512;28;20234;-44
2021/04/27 10:14:08;;;;;;;8.60;7.70;;;15.50;51.50;;;;;;5095399;28;20301;-44
2021/04/27 10:16:38;;;;;;;11.25;7.68;;;15.50;51.00;;;;;;5095304;28;20217;-47
2021/04/27 10:19:10;;;;;;;8.57;7.63;;;15.60;51.00;;;;;;5095575;28;20285;-46
2021/04/27 10:21:38;;;;;;;7.95;7.05;;;15.70;50.80;;;;;;5095373;28;20210;-47
2021/04/27 10:24:08;;;;;;;9.15;7.80;;;15.80;50.70;;;;;;5095339;28;20221;-46
2021/04/27 10:26:36;;;;;;;9.13;7.88;;;15.90;50.50;;;;;;5095272;28;20297;-45
2021/04/27 10:29:07;;;;;;;8.10;7.30;;;16.10;50.50;;;;;;5095153;28;20253;-44
2021/04/27 10:31:36;;;;;;;9.95;7.85;;;16.30;50.10;;;;;;5095334;28;20230;-46
2021/04/27 10:34:06;;;;;;;10.40;7.03;;;16.40;49.50;;;;;;5095330;28;20351;-47
2021/04/27 10:36:36;;;;;;;11.02;7.38;;;16.40;49.40;;;;;;5095337;28;20211;-44
2021/04/27 10:39:05;;;;;;;8.00;6.97;;;16.50;49.20;;;;;;5095154;28;20260;-45
2021/04/27 10:41:46;;;;;;;11.57;7.88;;;16.50;49.00;;;;;;5094886;28;20199;-50
2021/04/27 10:44:14;;;;;;;8.68;7.50;;;16.60;48.70;;;;;;5095146;28;20263;-46
2021/04/27 10:46:48;;;;;;;9.82;7.18;;;16.60;49.20;;;;;;5095014;28;20281;-49
2021/04/27 10:49:35;;;;;;;7.43;6.72;;;16.60;48.40;;;;;;5094877;28;20219;-45
2021/04/27 10:52:05;;;;;;;7.95;7.28;;;16.60;48.00;;;;;;5095092;28;20309;-46
2021/04/27 10:54:35;;;;;;;12.32;8.90;;;16.60;48.40;;;;;;5094871;28;20245;-47
2021/04/27 10:57:22;;;;;;;10.10;7.68;;;16.60;48.50;;;;;;5095004;28;20219;-46
2021/04/27 10:59:52;;;;;;;10.95;8.70;;;16.50;49.10;;;;;;5094920;28;20297;-47
2021/04/27 11:02:25;;;;;;;9.82;8.45;;;16.40;48.80;;;;;;5094471;28;20210;-44
2021/04/27 11:04:55;;;;;;;9.10;7.68;;;16.30;48.90;;;;;;5094637;28;20206;-45
2021/04/27 11:07:37;;;;;;;14.07;8.10;;;16.30;49.10;;;;;;5094325;28;20210;-47
2021/04/27 11:10:24;;;;;;;11.63;8.40;;;16.40;49.00;;;;;;5094468;28;20276;-45
2021/04/27 11:13:07;;;;;;;8.25;7.45;;;16.50;49.00;;;;;;5094650;28;20216;-45
2021/04/27 11:15:35;;;;;;;8.32;7.53;;;16.50;49.10;;;;;;5094564;28;20302;-47
2021/04/27 11:18:15;;;;;;;8.63;7.65;;;16.60;49.40;;;;;;5094395;28;20207;-46
2021/04/27 11:20:53;;;;;;;8.90;7.82;;;16.60;49.40;;;;;;5093181;28;20646;-46
2021/04/27 11:23:38;;;;;;;10.45;8.38;;;16.70;49.50;;;;;;5094207;28;20236;-46
2021/04/27 11:26:39;;;;;;;8.23;7.32;;;16.80;49.50;;;;;;5094179;28;20728;-47
2021/04/27 11:29:08;;;;;;;10.40;9.30;;;16.90;49.60;;;;;;5094116;28;20278;-49
2021/04/27 11:32:11;;;;;;;13.23;10.50;;;16.90;49.50;;;;;;5093868;28;20338;-45
2021/04/27 11:35:01;;;;;;;11.90;7.78;;;16.90;49.50;;;;;;5094126;28;20210;-46
2021/04/27 11:37:32;;;;;;;8.48;7.68;;;16.90;49.70;;;;;;5093896;28;20211;-48
2021/04/27 11:40:12;;;;;;;9.98;8.70;;;16.90;49.60;;;;;;5094144;28;20206;-47
2021/04/27 11:42:39;;;;;;;9.13;8.23;;;17.00;49.60;;;;;;5094045;28;20257;-47
2021/04/27 11:45:09;;;;;;;8.15;7.43;;;17.10;49.50;;;;;;5094010;28;20207;-45
2021/04/27 11:47:39;;;;;;;9.18;8.07;;;17.30;49.40;;;;;;5093967;28;20293;-47
2021/04/27 11:50:09;;;;;;;11.50;7.85;;;17.30;49.20;;;;;;5093607;28;20266;-46
2021/04/27 11:52:39;;;;;;;9.50;8.60;;;17.40;49.20;;;;;;5093897;28;20301;-50
2021/04/27 11:55:11;;;;;;;11.10;7.93;;;17.40;49.10;;;;;;5093857;28;20736;-45
2021/04/27 11:57:43;;;;;;;8.88;7.95;;;17.30;48.90;;;;;;5093618;28;20206;-46
2021/04/27 12:00:12;;;;;;;13.88;8.20;;;17.30;48.70;;;;;;5093646;28;20207;-45
2021/04/27 12:02:39;;;;;;;10.18;7.47;;;17.30;48.60;;;;;;5093459;28;20319;-46
2021/04/27 12:05:08;;;;;;;8.88;7.93;;;17.30;48.80;;;;;;5093571;28;20239;-46
2021/04/27 12:07:35;;;;;;;8.57;7.70;;;17.30;48.70;;;;;;5093475;28;20214;-46
2021/04/27 12:10:07;;;;;;;9.15;7.28;;;17.40;48.60;;;;;;5093251;28;20211;-45
2021/04/27 12:12:35;;;;;;;9.68;8.32;;;17.40;48.60;;;;;;5093441;28;20293;-45
2021/04/27 12:15:03;;;;;;;7.85;7.07;;;17.40;48.70;;;;;;5093744;28;20209;-45
2021/04/27 12:17:33;;;;;;;9.55;7.63;;;17.40;48.70;;;;;;5093551;28;20289;-45
2021/04/27 12:20:10;;;;;;;8.07;7.22;;;17.50;48.40;;;;;;5093353;28;20693;-45
2021/04/27 12:22:42;;;;;;;8.93;8.10;;;17.50;48.10;;;;;;5093494;28;20244;-44
2021/04/27 12:25:19;;;;;;;9.35;8.18;;;17.50;48.30;;;;;;5092750;28;20269;-49
2021/04/27 12:27:46;;;;;;;9.95;8.50;;;17.50;48.20;;;;;;5092691;28;20351;-45
2021/04/27 12:30:17;;;;;;;11.23;7.80;;;17.50;48.20;;;;;;5092970;28;20575;-47
2021/04/27 12:32:48;;;;;;;13.18;8.02;;;17.50;48.10;;;;;;5092688;28;20259;-45
2021/04/27 12:35:24;;;;;;;11.32;8.10;;;17.50;48.00;;;;;;5092909;28;20260;-45
2021/04/27 12:38:01;;;;;;;8.93;7.97;;;17.60;48.00;;;;;;5092936;28;20259;-43
2021/04/27 12:40:30;;;;;;;8.70;7.72;;;17.60;48.00;;;;;;5093109;28;20202;-48
2021/04/27 12:43:02;;;;;;;7.43;6.72;;;17.60;47.70;;;;;;5092859;28;20256;-46
2021/04/27 12:45:42;;;;;;;8.02;7.22;;;17.50;47.60;;;;;;5093135;28;20223;-46
2021/04/27 12:48:09;;;;;;;8.30;7.50;;;17.50;47.10;;;;;;5092664;28;20635;-47
2021/04/27 12:50:48;;;;;;;9.52;8.63;;;17.50;47.50;;;;;;5092387;28;20230;-47
2021/04/27 12:53:17;;;;;;;8.13;7.32;;;17.60;47.70;;;;;;5092819;28;20241;-46
2021/04/27 12:55:52;;;;;;;9.43;8.43;;;17.60;47.70;;;;;;5092445;28;20212;-48
2021/04/27 12:58:22;;;;;;;10.00;8.00;;;17.70;47.60;;;;;;5092501;28;20778;-47
2021/04/27 13:00:57;;;;;;;8.57;7.70;;;17.70;47.40;;;;;;5092496;28;20238;-50